Queen Of Cowichan — CZ4990 — position and weather

sailwx.info

Track history (hours):
 
Tides and Currents Weather Stations Pressure Air Temp Water Temp Dewpoint Dewpoint Depression Visibility Wind Speed Wind Dir Waves Ship Positions

Queen Of Cowichan

Last reported at 2018-Sep-19 06:30 UTC. Time now 2018-Sep-19 06:53 UTC.
Position N 49°14' W 123°49'.

Length 139 m.

Type: Passenger vessel. MMSI: 316001251.

Date/timePositionNaut miles runAvg speedWind from/ knotsBaromVisibWave heightAir tempDewpointWater temp
2018-Sep-19 06:30N 49°14' W 123°49'918.6
2018-Sep-19 06:02N 49°17' W 123°36'119.1
2018-Sep-19 06:00N 49°18' W 123°35'918.6
2018-Sep-19 05:30N 49°20' W 123°21'4 9.5
2018-Sep-19 05:03N 49°23' W 123°16'0 0.0
2018-Sep-19 05:00N 49°23' W 123°16'2 3.8
2018-Sep-19 04:30N 49°22' W 123°19'818.6
2018-Sep-19 04:03N 49°18' W 123°30'119.2
2018-Sep-19 04:00N 49°18' W 123°32'1019.4
2018-Sep-19 03:30N 49°15' W 123°46'815.9
2018-Sep-19 02:59N 49°12' W 123°57'1 1.3
2018-Sep-19 02:30N 49°12' W 123°57'817.4
2018-Sep-19 02:03N 49°16' W 123°46'117.7
2018-Sep-19 01:59N 49°16' W 123°44'817.6
2018-Sep-19 01:30N 49°18' W 123°32'817.3
2018-Sep-19 01:04N 49°20' W 123°21'117.8
2018-Sep-19 01:01N 49°21' W 123°20'3 5.4
2018-Sep-19 00:30N 49°23' W 123°16'1 2.0
2018-Sep-19 00:02N 49°23' W 123°18'019.3
2018-Sep-19 00:00N 49°23' W 123°18'1019.1
2018-Sep-18 23:30N 49°17' W 123°30'919.9
2018-Sep-18 23:03N 49°15' W 123°44'119.5
2018-Sep-18 23:00N 49°15' W 123°45'917.4
2018-Sep-18 22:31N 49°12' W 123°57'0 0.1
2018-Sep-18 22:03N 49°12' W 123°57'0 0.6
2018-Sep-18 22:00N 49°12' W 123°57'816.5
2018-Sep-18 21:30N 49°15' W 123°46'919.8
2018-Sep-18 21:03N 49°18' W 123°33'119.7
2018-Sep-18 21:00N 49°18' W 123°31'918.7
2018-Sep-18 20:30N 49°22' W 123°18'2 3.4
2018-Sep-18 20:03N 49°23' W 123°16'0 0.0
2018-Sep-18 20:00N 49°23' W 123°16'2 3.4
2018-Sep-18 19:30N 49°22' W 123°19'919.3
2018-Sep-18 19:01N 49°17' W 123°31'020.0
2018-Sep-18 19:00N 49°17' W 123°32'1020.5
2018-Sep-18 18:30N 49°14' W 123°47'715.3
2018-Sep-18 18:01N 49°12' W 123°57'0 0.0
2018-Sep-18 17:58N 49°12' W 123°57'0 0.0
2018-Sep-18 17:30N 49°12' W 123°57'715.4
2018-Sep-18 17:03N 49°15' W 123°48'118.6
2018-Sep-18 17:00N 49°15' W 123°47'1018.5
2018-Sep-18 16:29N 49°18' W 123°33'818.5
2018-Sep-18 16:04N 49°20' W 123°21'118.5
2018-Sep-18 16:00N 49°21' W 123°20'3 5.7
2018-Sep-18 15:30N 49°23' W 123°16'1 2.1
2018-Sep-18 15:03N 49°23' W 123°18'119.4
2018-Sep-18 15:00N 49°22' W 123°18'918.4
2018-Sep-18 14:30N 49°18' W 123°31'1019.4
2018-Sep-18 14:00N 49°15' W 123°45'915.6
2018-Sep-18 13:27N 49°12' W 123°57'0 0.0
2018-Sep-18 11:46N 49°12' W 123°57'0 0.0
2018-Sep-18 11:22N 49°12' W 123°57'0 0.0
2018-Sep-18 10:58N 49°12' W 123°57'0 0.0
2018-Sep-18 09:52N 49°12' W 123°57'0 0.0
2018-Sep-18 07:52N 49°12' W 123°57'0 0.0
2018-Sep-18 07:28N 49°12' W 123°57'0 0.0
2018-Sep-18 06:58N 49°12' W 123°57'613.5
2018-Sep-18 06:30N 49°15' W 123°49'818.8
2018-Sep-18 06:03N 49°17' W 123°37'118.8
2018-Sep-18 06:00N 49°18' W 123°35'918.8
2018-Sep-18 05:30N 49°20' W 123°21'4 9.7
2018-Sep-18 05:03N 49°23' W 123°16'0 0.0
2018-Sep-18 05:00N 49°23' W 123°16'3 5.2
2018-Sep-18 04:31N 49°21' W 123°20'919.9
2018-Sep-18 04:03N 49°17' W 123°32'121.0
2018-Sep-18 04:00N 49°17' W 123°33'1020.9
2018-Sep-18 03:30N 49°14' W 123°49'612.6
2018-Sep-18 03:01N 49°12' W 123°57'0 0.0
2018-Sep-18 03:00N 49°12' W 123°57'2 3.8
2018-Sep-18 02:30N 49°13' W 123°55'1019.7
2018-Sep-18 02:01N 49°16' W 123°41'020.1
2018-Sep-18 02:00N 49°16' W 123°41'1019.7
2018-Sep-18 01:30N 49°19' W 123°26'816.5
2018-Sep-18 01:03N 49°23' W 123°16'0 1.5
2018-Sep-18 01:00N 49°23' W 123°16'0 0.1
2018-Sep-18 00:30N 49°23' W 123°16'612.5
2018-Sep-18 00:00N 49°19' W 123°24'1020.7
2018-Sep-17 23:30N 49°16' W 123°39'920.8
2018-Sep-17 23:03N 49°14' W 123°53'120.7
2018-Sep-17 23:00N 49°13' W 123°54'2 3.5
2018-Sep-17 22:18N 49°12' W 123°57'1 4.8
2018-Sep-17 22:03N 49°12' W 123°56'119.5
2018-Sep-17 22:00N 49°13' W 123°55'1019.6
2018-Sep-17 21:29N 49°17' W 123°40'919.7
2018-Sep-17 21:03N 49°19' W 123°28'119.3
2018-Sep-17 21:00N 49°19' W 123°26'714.8
2018-Sep-17 20:30N 49°23' W 123°16'0 0.1
2018-Sep-17 20:03N 49°23' W 123°16'0 0.0
2018-Sep-17 19:59N 49°23' W 123°16'4 8.6
2018-Sep-17 19:30N 49°20' W 123°21'1020.7
2018-Sep-17 19:03N 49°17' W 123°35'120.7
2018-Sep-17 19:00N 49°16' W 123°36'1020.4
2018-Sep-17 18:30N 49°14' W 123°51'5 9.8
2018-Sep-17 18:02N 49°12' W 123°57'0 0.0
2018-Sep-17 18:00N 49°12' W 123°57'0 0.0
2018-Sep-17 17:30N 49°12' W 123°57'614.1
2018-Sep-17 17:03N 49°15' W 123°49'120.4
2018-Sep-17 17:01N 49°15' W 123°47'1020.2
2018-Sep-17 16:30N 49°18' W 123°32'818.7
2018-Sep-17 16:03N 49°20' W 123°20'219.9
2018-Sep-17 15:58N 49°22' W 123°19'2 3.6
2018-Sep-17 15:30N 49°23' W 123°16'1 2.0
2018-Sep-17 15:04N 49°23' W 123°17'120.0
2018-Sep-17 15:00N 49°22' W 123°18'1018.9
2018-Sep-17 14:30N 49°18' W 123°31'1019.6
2018-Sep-17 13:59N 49°14' W 123°45'816.7
2018-Sep-17 13:30N 49°12' W 123°57'0 0.0
2018-Sep-17 12:53N 49°12' W 123°57'0 0.0
2018-Sep-17 12:02N 49°12' W 123°57'0 0.0
2018-Sep-17 11:56N 49°12' W 123°57'0 0.0
2018-Sep-17 11:20N 49°12' W 123°57'0 0.0
2018-Sep-17 10:38N 49°12' W 123°57'0 0.0
2018-Sep-17 10:23N 49°12' W 123°57'0 0.0
2018-Sep-17 09:56N 49°12' W 123°57'0 0.0
2018-Sep-17 09:14N 49°12' W 123°57'0 0.0
2018-Sep-17 08:47N 49°12' W 123°57'0 0.0
2018-Sep-17 08:29N 49°12' W 123°57'0 0.0
2018-Sep-17 08:02N 49°12' W 123°57'0 0.0
2018-Sep-17 07:50N 49°12' W 123°57'0 0.0
2018-Sep-17 07:20N 49°12' W 123°57'0 0.0
2018-Sep-17 06:53N 49°12' W 123°57'411.0
2018-Sep-17 06:30N 49°14' W 123°52'920.0
2018-Sep-17 06:03N 49°17' W 123°39'120.2
2018-Sep-17 06:01N 49°17' W 123°38'1020.0
2018-Sep-17 05:30N 49°19' W 123°23'511.6
2018-Sep-17 05:03N 49°23' W 123°16'0 0.0
2018-Sep-17 05:00N 49°23' W 123°16'1 2.1
2018-Sep-17 04:30N 49°23' W 123°18'818.7
2018-Sep-17 04:03N 49°18' W 123°28'120.4
2018-Sep-17 04:00N 49°18' W 123°29'1020.4
2018-Sep-17 03:30N 49°15' W 123°44'919.8
2018-Sep-17 03:03N 49°12' W 123°57'0 0.6
2018-Sep-17 02:24N 49°12' W 123°57'515.9
2018-Sep-17 02:03N 49°14' W 123°50'119.9
2018-Sep-17 01:59N 49°15' W 123°48'1020.0
2018-Sep-17 01:30N 49°18' W 123°34'919.7
2018-Sep-17 01:03N 49°20' W 123°21'120.0
2018-Sep-17 01:00N 49°21' W 123°20'3 6.0
2018-Sep-17 00:31N 49°23' W 123°16'2 4.1
2018-Sep-17 00:03N 49°22' W 123°19'120.4
2018-Sep-17 00:00N 49°21' W 123°20'1020.0
2018-Sep-16 23:30N 49°17' W 123°34'920.8
2018-Sep-16 23:04N 49°14' W 123°47'120.8
2018-Sep-16 23:00N 49°14' W 123°49'611.7
2018-Sep-16 22:30N 49°12' W 123°57'0 0.1
2018-Sep-16 22:02N 49°12' W 123°57'0 5.5
2018-Sep-16 22:00N 49°12' W 123°57'918.8
2018-Sep-16 21:30N 49°16' W 123°45'919.8
2018-Sep-16 21:04N 49°18' W 123°32'119.8
2018-Sep-16 21:00N 49°19' W 123°30'918.6
2018-Sep-16 20:30N 49°23' W 123°17'1 2.2
2018-Sep-16 20:03N 49°23' W 123°16'0 0.0
2018-Sep-16 19:58N 49°23' W 123°16'611.9
2018-Sep-16 19:31N 49°19' W 123°23'920.7
2018-Sep-16 19:03N 49°16' W 123°37'220.5
2018-Sep-16 18:58N 49°16' W 123°39'1020.6
2018-Sep-16 18:29N 49°13' W 123°54'3 5.9
2018-Sep-16 18:01N 49°12' W 123°57'0 0.0
2018-Sep-16 18:00N 49°12' W 123°57'0 0.7
2018-Sep-16 17:30N 49°12' W 123°57'612.9
2018-Sep-16 17:03N 49°15' W 123°49'118.9
2018-Sep-16 17:00N 49°15' W 123°48'919.4
2018-Sep-16 16:30N 49°18' W 123°34'919.2
2018-Sep-16 16:03N 49°20' W 123°21'119.8
2018-Sep-16 16:00N 49°21' W 123°20'3 6.4
2018-Sep-16 15:30N 49°23' W 123°16'1 3.3
2018-Sep-16 15:03N 49°22' W 123°18'118.9
2018-Sep-16 15:00N 49°21' W 123°19'918.2
2018-Sep-16 14:30N 49°17' W 123°32'1817.8
2018-Sep-16 13:30N 49°12' W 123°57'0 0.1
2018-Sep-16 13:03N 49°12' W 123°57'0 0.0
2018-Sep-16 13:00N 49°12' W 123°57'0 0.0
2018-Sep-16 12:30N 49°12' W 123°57'0 0.0
2018-Sep-16 12:00N 49°12' W 123°57'0 0.0
2018-Sep-16 11:30N 49°12' W 123°57'0 0.0
2018-Sep-16 11:03N 49°12' W 123°57'0 0.0
2018-Sep-16 11:00N 49°12' W 123°57'0 0.0
2018-Sep-16 10:27N 49°12' W 123°57'0 0.0
2018-Sep-16 10:03N 49°12' W 123°57'0 0.0
2018-Sep-16 10:00N 49°12' W 123°57'0 0.0
2018-Sep-16 09:27N 49°12' W 123°57'0 0.0
2018-Sep-16 09:03N 49°12' W 123°57'0 0.0
2018-Sep-16 09:00N 49°12' W 123°57'0 0.0
2018-Sep-16 08:30N 49°12' W 123°57'0 0.0
2018-Sep-16 08:03N 49°12' W 123°57'0 0.0
2018-Sep-16 08:00N 49°12' W 123°57'0 0.0
2018-Sep-16 07:18N 49°12' W 123°57'0 0.0
2018-Sep-16 07:03N 49°12' W 123°57'0 0.0
2018-Sep-16 06:57N 49°12' W 123°57'511.2
2018-Sep-16 06:30N 49°14' W 123°51'919.5
2018-Sep-16 06:03N 49°17' W 123°38'119.7
2018-Sep-16 06:00N 49°17' W 123°37'1019.5
2018-Sep-16 05:30N 49°20' W 123°22'510.5
2018-Sep-16 05:03N 49°23' W 123°16'0 0.0
2018-Sep-16 05:00N 49°23' W 123°16'1 2.4
2018-Sep-16 04:30N 49°23' W 123°18'919.0
2018-Sep-16 04:03N 49°18' W 123°29'120.4
2018-Sep-16 04:00N 49°17' W 123°30'1020.2
2018-Sep-16 03:30N 49°15' W 123°45'818.9
2018-Sep-16 03:03N 49°12' W 123°57'0 1.6
2018-Sep-16 03:00N 49°12' W 123°57'1 1.3
2018-Sep-16 02:30N 49°12' W 123°57'919.7
2018-Sep-16 02:03N 49°16' W 123°44'120.1
2018-Sep-16 02:00N 49°16' W 123°43'1020.2
2018-Sep-16 01:30N 49°19' W 123°28'818.8
2018-Sep-16 01:03N 49°23' W 123°17'111.9
2018-Sep-16 01:00N 49°23' W 123°16'0 0.5
2018-Sep-16 00:30N 49°23' W 123°16'4 8.2
2018-Sep-16 00:03N 49°20' W 123°21'120.2
2018-Sep-16 00:00N 49°19' W 123°22'1020.3
2018-Sep-15 23:30N 49°16' W 123°36'920.3
2018-Sep-15 23:03N 49°14' W 123°50'120.6
2018-Sep-15 23:00N 49°14' W 123°52'4 5.2
2018-Sep-15 22:12N 49°12' W 123°57'0 0.0
2018-Sep-15 22:03N 49°12' W 123°57'0 3.6
2018-Sep-15 22:00N 49°12' W 123°57'1018.8
2018-Sep-15 21:30N 49°16' W 123°44'919.9
2018-Sep-15 21:03N 49°18' W 123°31'119.9
2018-Sep-15 21:00N 49°18' W 123°30'918.5
2018-Sep-15 20:30N 49°23' W 123°18'1 2.3
2018-Sep-15 20:03N 49°23' W 123°16'0 0.0
2018-Sep-15 20:00N 49°23' W 123°16'2 3.4
2018-Sep-15 19:30N 49°22' W 123°19'818.9
2018-Sep-15 19:03N 49°18' W 123°30'120.0
2018-Sep-15 19:00N 49°17' W 123°31'1019.7
2018-Sep-15 18:30N 49°15' W 123°46'817.2
2018-Sep-15 18:02N 49°12' W 123°57'0 0.0
2018-Sep-15 18:01N 49°12' W 123°57'0 0.0
2018-Sep-15 17:30N 49°12' W 123°57'613.9
2018-Sep-15 17:03N 49°15' W 123°49'119.2
2018-Sep-15 17:00N 49°15' W 123°48'1019.6
2018-Sep-15 16:29N 49°18' W 123°33'819.2
2018-Sep-15 16:03N 49°20' W 123°20'119.9
2018-Sep-15 16:00N 49°21' W 123°20'3 5.2
2018-Sep-15 15:30N 49°23' W 123°16'1 2.3
2018-Sep-15 15:03N 49°23' W 123°18'1017.9
2018-Sep-15 14:30N 49°17' W 123°31'918.8
2018-Sep-15 14:00N 49°15' W 123°45'916.6
2018-Sep-15 13:28N 49°12' W 123°57'0 0.0
2018-Sep-15 13:03N 49°12' W 123°57'0 0.0
2018-Sep-15 13:00N 49°12' W 123°57'0 0.0
2018-Sep-15 12:26N 49°12' W 123°57'0 0.0
2018-Sep-15 11:59N 49°12' W 123°57'0 0.0
2018-Sep-15 11:29N 49°12' W 123°57'0 0.0
2018-Sep-15 10:59N 49°12' W 123°57'0 0.0
2018-Sep-15 10:28N 49°12' W 123°57'0 0.0
2018-Sep-15 09:37N 49°12' W 123°57'0 0.0
2018-Sep-15 09:25N 49°12' W 123°57'0 0.0
2018-Sep-15 08:01N 49°12' W 123°57'0 0.0
2018-Sep-15 07:56N 49°12' W 123°57'0 0.0
2018-Sep-15 07:14N 49°12' W 123°57'0 0.0
2018-Sep-15 06:58N 49°12' W 123°57'4 9.2
2018-Sep-15 06:30N 49°14' W 123°52'920.1
2018-Sep-15 06:03N 49°17' W 123°39'120.0
2018-Sep-15 06:00N 49°17' W 123°37'1020.0
2018-Sep-15 05:30N 49°19' W 123°22'511.1
2018-Sep-15 05:03N 49°23' W 123°16'0 0.0
2018-Sep-15 05:00N 49°23' W 123°16'1 2.0
2018-Sep-15 04:31N 49°23' W 123°18'919.1
2018-Sep-15 04:03N 49°18' W 123°28'120.6
2018-Sep-15 04:00N 49°18' W 123°29'1020.3
2018-Sep-15 03:30N 49°15' W 123°45'919.5
2018-Sep-15 03:03N 49°12' W 123°57'0 3.4
2018-Sep-15 02:59N 49°12' W 123°57'0 0.1
2018-Sep-15 02:29N 49°12' W 123°57'614.5
2018-Sep-15 02:03N 49°14' W 123°49'120.3
2018-Sep-15 02:00N 49°15' W 123°47'1019.7
2018-Sep-15 01:30N 49°18' W 123°33'919.3
2018-Sep-15 01:03N 49°20' W 123°20'120.2
2018-Sep-15 01:00N 49°21' W 123°19'2 4.8
2018-Sep-15 00:30N 49°23' W 123°16'1 1.3
2018-Sep-15 00:03N 49°23' W 123°17'114.5
2018-Sep-15 00:00N 49°23' W 123°18'1019.1
2018-Sep-14 23:30N 49°17' W 123°30'920.4
2018-Sep-14 23:03N 49°15' W 123°43'119.4
2018-Sep-14 23:00N 49°15' W 123°44'9 7.9
2018-Sep-14 21:52N 49°12' W 123°57'616.2
2018-Sep-14 21:30N 49°15' W 123°49'920.0
2018-Sep-14 21:03N 49°17' W 123°36'120.3
2018-Sep-14 21:00N 49°18' W 123°35'1019.5
2018-Sep-14 20:30N 49°20' W 123°20'3 7.9
2018-Sep-14 20:04N 49°23' W 123°16'0 0.0
2018-Sep-14 20:00N 49°23' W 123°16'2 3.1
2018-Sep-14 19:30N 49°22' W 123°19'818.3
2018-Sep-14 19:03N 49°18' W 123°29'119.0
2018-Sep-14 19:00N 49°17' W 123°31'1019.3
2018-Sep-14 18:30N 49°15' W 123°45'919.0
2018-Sep-14 18:03N 49°12' W 123°57'0 0.5
2018-Sep-14 17:24N 49°12' W 123°57'615.8
2018-Sep-14 17:02N 49°15' W 123°50'119.3
2018-Sep-14 17:00N 49°15' W 123°49'1019.5
2018-Sep-14 16:29N 49°18' W 123°34'819.5
2018-Sep-14 16:03N 49°20' W 123°21'119.7
2018-Sep-14 16:01N 49°20' W 123°20'4 7.1
2018-Sep-14 15:30N 49°23' W 123°16'1 1.7
2018-Sep-14 15:03N 49°23' W 123°17'119.7
2018-Sep-14 15:00N 49°22' W 123°18'918.4
2018-Sep-14 14:30N 49°17' W 123°30'1019.3
2018-Sep-14 14:00N 49°15' W 123°45'917.5
2018-Sep-14 13:29N 49°12' W 123°57'0 0.1
2018-Sep-14 13:02N 49°12' W 123°57'0 0.0
2018-Sep-14 13:00N 49°12' W 123°57'0 0.0
2018-Sep-14 12:27N 49°12' W 123°57'0 0.0
2018-Sep-14 12:03N 49°12' W 123°57'0 0.0
2018-Sep-14 12:00N 49°12' W 123°57'0 0.0
2018-Sep-14 09:30N 49°12' W 123°57'0 0.0
2018-Sep-14 08:27N 49°12' W 123°57'0 0.0
2018-Sep-14 08:00N 49°12' W 123°57'0 0.0
2018-Sep-14 07:30N 49°12' W 123°57'0 0.0
2018-Sep-14 06:51N 49°12' W 123°57'412.1
2018-Sep-14 06:30N 49°14' W 123°52'920.1
2018-Sep-14 06:03N 49°17' W 123°39'120.5
2018-Sep-14 06:01N 49°17' W 123°38'1020.3
2018-Sep-14 05:30N 49°20' W 123°23'511.1
2018-Sep-14 05:03N 49°23' W 123°16'0 0.0
2018-Sep-14 05:00N 49°23' W 123°16'1 2.4
2018-Sep-14 04:30N 49°23' W 123°18'918.9
2018-Sep-14 04:03N 49°18' W 123°29'120.6
2018-Sep-14 04:00N 49°17' W 123°30'1020.1
2018-Sep-14 03:30N 49°15' W 123°45'918.6
2018-Sep-14 03:03N 49°12' W 123°57'0 0.3
2018-Sep-14 02:45N 49°12' W 123°57'0 0.7
2018-Sep-14 02:30N 49°12' W 123°57'918.4
2018-Sep-14 02:02N 49°16' W 123°46'820.0
2018-Sep-14 01:39N 49°18' W 123°34'319.7
2018-Sep-14 01:29N 49°18' W 123°30'818.9
2018-Sep-14 01:03N 49°22' W 123°18'120.0
2018-Sep-14 01:00N 49°23' W 123°17'1 1.7
2018-Sep-14 00:30N 49°23' W 123°16'2 3.7
2018-Sep-14 00:03N 49°22' W 123°19'119.8
2018-Sep-14 00:00N 49°21' W 123°19'1019.0
2018-Sep-13 23:30N 49°17' W 123°32'919.9
2018-Sep-13 23:03N 49°15' W 123°45'120.1
2018-Sep-13 23:00N 49°14' W 123°47'714.4
2018-Sep-13 22:30N 49°12' W 123°57'0 0.0
2018-Sep-13 22:03N 49°12' W 123°57'0 0.0
2018-Sep-13 22:00N 49°12' W 123°57'612.7
2018-Sep-13 21:30N 49°15' W 123°49'920.0
2018-Sep-13 21:03N 49°18' W 123°36'119.5
2018-Sep-13 21:00N 49°18' W 123°35'1019.4
2018-Sep-13 20:30N 49°20' W 123°20'3 7.4
2018-Sep-13 20:03N 49°23' W 123°16'0 0.0
2018-Sep-13 20:00N 49°23' W 123°16'1 2.6
2018-Sep-13 19:30N 49°23' W 123°18'919.5
2018-Sep-13 19:03N 49°18' W 123°29'120.9
2018-Sep-13 19:00N 49°17' W 123°31'1020.6
2018-Sep-13 18:30N 49°15' W 123°46'817.5
2018-Sep-13 18:03N 49°12' W 123°57'0 0.0
2018-Sep-13 18:00N 49°12' W 123°57'0 0.0
2018-Sep-13 17:28N 49°12' W 123°57'715.8
2018-Sep-13 17:02N 49°15' W 123°48'119.0
2018-Sep-13 17:01N 49°15' W 123°47'1018.9
2018-Sep-13 16:30N 49°18' W 123°33'818.9
2018-Sep-13 16:03N 49°20' W 123°21'119.4
2018-Sep-13 16:00N 49°21' W 123°20'3 6.0
2018-Sep-13 15:30N 49°23' W 123°16'1 2.5
2018-Sep-13 15:03N 49°23' W 123°18'119.3
2018-Sep-13 14:59N 49°22' W 123°19'918.2
2018-Sep-13 14:30N 49°17' W 123°31'1018.8
2018-Sep-13 13:59N 49°15' W 123°45'916.2
2018-Sep-13 13:28N 49°12' W 123°57'0 0.0
2018-Sep-13 13:02N 49°12' W 123°57'0 0.0
2018-Sep-13 12:59N 49°12' W 123°57'0 0.0
2018-Sep-13 11:34N 49°12' W 123°57'0 0.0
2018-Sep-13 08:39N 49°12' W 123°57'0 0.0
2018-Sep-13 08:27N 49°12' W 123°57'0 0.0
2018-Sep-13 08:03N 49°12' W 123°57'0 0.0
2018-Sep-13 07:51N 49°12' W 123°57'0 0.0
2018-Sep-13 07:27N 49°12' W 123°57'0 0.0
2018-Sep-13 07:03N 49°12' W 123°57'0 0.0
2018-Sep-13 06:57N 49°12' W 123°57'613.5
2018-Sep-13 06:30N 49°15' W 123°49'818.5
2018-Sep-13 06:03N 49°17' W 123°37'118.5
2018-Sep-13 06:01N 49°17' W 123°36'918.5
2018-Sep-13 05:30N 49°20' W 123°22'510.3
2018-Sep-13 05:03N 49°23' W 123°16'0 0.0
2018-Sep-13 05:00N 49°23' W 123°16'1 1.9
2018-Sep-13 04:30N 49°23' W 123°18'918.8
2018-Sep-13 04:03N 49°18' W 123°28'120.3
2018-Sep-13 04:00N 49°18' W 123°29'1020.1
2018-Sep-13 03:30N 49°15' W 123°44'919.7
2018-Sep-13 03:03N 49°12' W 123°57'0 8.0
2018-Sep-13 03:00N 49°12' W 123°57'0 0.1
2018-Sep-13 02:29N 49°12' W 123°57'715.2
2018-Sep-13 02:03N 49°15' W 123°48'120.2
2018-Sep-13 02:00N 49°15' W 123°47'1019.9
2018-Sep-13 01:30N 49°18' W 123°32'818.7
2018-Sep-13 01:03N 49°20' W 123°20'120.1
2018-Sep-13 01:00N 49°21' W 123°19'3 5.2
2018-Sep-13 00:30N 49°23' W 123°16'0 1.0
2018-Sep-13 00:03N 49°23' W 123°16'111.3
2018-Sep-13 00:00N 49°23' W 123°17'1018.9
2018-Sep-12 23:30N 49°18' W 123°29'920.1
2018-Sep-12 23:03N 49°15' W 123°43'120.1
2018-Sep-12 23:00N 49°15' W 123°44'916.6
2018-Sep-12 22:27N 49°12' W 123°57'0 0.0
2018-Sep-12 21:58N 49°12' W 123°57'714.6
2018-Sep-12 21:30N 49°15' W 123°48'919.9
2018-Sep-12 21:01N 49°18' W 123°35'019.0
2018-Sep-12 21:00N 49°18' W 123°34'1019.3
2018-Sep-12 20:30N 49°21' W 123°20'3 6.4
2018-Sep-12 20:03N 49°23' W 123°16'0 0.0
2018-Sep-12 20:00N 49°23' W 123°16'2 4.5
2018-Sep-12 19:30N 49°21' W 123°19'818.5
2018-Sep-12 19:03N 49°17' W 123°30'118.9
2018-Sep-12 19:00N 49°17' W 123°32'1019.2
2018-Sep-12 18:30N 49°15' W 123°46'817.8
2018-Sep-12 18:03N 49°12' W 123°57'0 1.2
2018-Sep-12 18:00N 49°12' W 123°57'0 0.0
2018-Sep-12 17:29N 49°12' W 123°57'715.4
2018-Sep-12 17:03N 49°15' W 123°48'118.8
2018-Sep-12 17:00N 49°15' W 123°47'918.5
2018-Sep-12 16:30N 49°18' W 123°33'818.6
2018-Sep-12 16:03N 49°20' W 123°21'118.4
2018-Sep-12 16:00N 49°21' W 123°20'3 6.4
2018-Sep-12 15:30N 49°23' W 123°16'1 2.0
2018-Sep-12 15:03N 49°23' W 123°18'119.5
2018-Sep-12 15:00N 49°22' W 123°19'1818.6
2018-Sep-12 14:03N 49°15' W 123°43'119.5
2018-Sep-12 14:00N 49°15' W 123°45'917.0
2018-Sep-12 13:29N 49°12' W 123°57'0 0.1
2018-Sep-12 12:46N 49°12' W 123°57'0 0.0
2018-Sep-12 12:26N 49°12' W 123°57'0 0.0
2018-Sep-12 08:59N 49°12' W 123°57'0 0.0
2018-Sep-12 08:23N 49°12' W 123°57'0 0.0
2018-Sep-12 07:59N 49°12' W 123°57'0 0.0
2018-Sep-12 07:23N 49°12' W 123°57'0 0.0
2018-Sep-12 06:56N 49°12' W 123°57'614.9
2018-Sep-12 06:30N 49°14' W 123°48'920.0
2018-Sep-12 06:03N 49°17' W 123°35'119.6
2018-Sep-12 06:01N 49°18' W 123°34'918.4
2018-Sep-12 05:30N 49°20' W 123°21'4 7.8
2018-Sep-12 05:03N 49°23' W 123°16'0 0.0
2018-Sep-12 05:00N 49°23' W 123°16'2 4.0
2018-Sep-12 04:30N 49°22' W 123°19'817.6
2018-Sep-12 04:03N 49°18' W 123°30'118.7
2018-Sep-12 04:00N 49°18' W 123°31'918.6
2018-Sep-12 03:30N 49°15' W 123°45'818.6
2018-Sep-12 03:03N 49°12' W 123°57'1 7.4
2018-Sep-12 02:58N 49°12' W 123°57'0 0.1
2018-Sep-12 02:30N 49°12' W 123°57'614.3
2018-Sep-12 02:03N 49°15' W 123°49'120.2
2018-Sep-12 02:01N 49°15' W 123°48'1019.8
2018-Sep-12 01:30N 49°18' W 123°33'818.5
2018-Sep-12 01:03N 49°20' W 123°21'120.7
2018-Sep-12 01:01N 49°21' W 123°20'3 5.5
2018-Sep-12 00:30N 49°23' W 123°16'1 1.9
2018-Sep-12 00:03N 49°23' W 123°17'114.1
2018-Sep-12 00:00N 49°23' W 123°18'1019.6
2018-Sep-11 23:30N 49°18' W 123°30'920.6
2018-Sep-11 23:03N 49°15' W 123°44'120.0
2018-Sep-11 23:00N 49°15' W 123°45'816.7
2018-Sep-11 22:30N 49°12' W 123°57'0 0.2
2018-Sep-11 22:03N 49°12' W 123°57'010.0
2018-Sep-11 22:00N 49°12' W 123°57'1019.6
2018-Sep-11 21:30N 49°16' W 123°43'920.1
2018-Sep-11 21:03N 49°18' W 123°30'120.1
2018-Sep-11 21:00N 49°18' W 123°28'917.6
2018-Sep-11 20:30N 49°23' W 123°16'0 0.5
2018-Sep-11 20:03N 49°23' W 123°16'0 0.0
2018-Sep-11 20:00N 49°23' W 123°16'2 3.9
2018-Sep-11 19:30N 49°22' W 123°19'919.1
2018-Sep-11 19:03N 49°18' W 123°30'120.5
2018-Sep-11 19:00N 49°17' W 123°32'1020.3
2018-Sep-11 18:30N 49°15' W 123°47'716.3
2018-Sep-11 18:03N 49°12' W 123°57'0 0.0
2018-Sep-11 18:00N 49°12' W 123°57'0 0.0
2018-Sep-11 17:30N 49°12' W 123°57'714.7
2018-Sep-11 17:03N 49°15' W 123°48'119.1
2018-Sep-11 17:00N 49°15' W 123°47'1019.2
2018-Sep-11 16:30N 49°18' W 123°33'918.9
2018-Sep-11 16:02N 49°21' W 123°20'119.4
2018-Sep-11 16:00N 49°21' W 123°20'3 5.0
2018-Sep-11 15:30N 49°23' W 123°16'1 2.4
2018-Sep-11 15:03N 49°23' W 123°18'119.8
2018-Sep-11 15:00N 49°22' W 123°19'918.1
2018-Sep-11 14:30N 49°18' W 123°31'1019.2
2018-Sep-11 14:00N 49°15' W 123°45'916.2
2018-Sep-11 13:28N 49°12' W 123°57'0 0.0
2018-Sep-11 13:03N 49°12' W 123°57'0 0.0
2018-Sep-11 13:00N 49°12' W 123°57'0 0.0
2018-Sep-11 12:30N 49°12' W 123°57'0 0.0
2018-Sep-11 12:02N 49°12' W 123°57'0 0.0
2018-Sep-11 11:50N 49°12' W 123°57'0 0.0
2018-Sep-11 11:26N 49°12' W 123°57'0 0.0
2018-Sep-11 10:56N 49°12' W 123°57'0 0.0
2018-Sep-11 10:26N 49°12' W 123°57'0 0.0
2018-Sep-11 09:56N 49°12' W 123°57'0 0.0
2018-Sep-11 09:20N 49°12' W 123°57'0 0.0
2018-Sep-11 08:08N 49°12' W 123°57'0 0.0
2018-Sep-11 07:14N 49°12' W 123°57'0 0.0
2018-Sep-11 07:02N 49°12' W 123°57'0 0.0
2018-Sep-11 06:59N 49°12' W 123°57'613.2
2018-Sep-11 06:30N 49°15' W 123°49'920.1
2018-Sep-11 06:03N 49°18' W 123°35'119.6
2018-Sep-11 06:00N 49°18' W 123°34'1019.5
2018-Sep-11 05:30N 49°21' W 123°20'3 6.6
2018-Sep-11 05:03N 49°23' W 123°16'0 0.0
2018-Sep-11 05:00N 49°23' W 123°16'510.1
2018-Sep-11 04:30N 49°19' W 123°22'920.5
2018-Sep-11 04:03N 49°16' W 123°36'120.4
2018-Sep-11 04:00N 49°16' W 123°37'1120.6
2018-Sep-11 03:29N 49°14' W 123°53'3 4.7
2018-Sep-11 02:45N 49°12' W 123°57'311.5
2018-Sep-11 02:30N 49°13' W 123°54'919.8
2018-Sep-11 02:02N 49°17' W 123°41'120.2
2018-Sep-11 02:00N 49°17' W 123°40'1020.0
2018-Sep-11 01:30N 49°19' W 123°25'614.4
2018-Sep-11 01:03N 49°23' W 123°16'0 0.0
2018-Sep-11 01:00N 49°23' W 123°16'0 0.0
2018-Sep-11 00:30N 49°23' W 123°16'4 9.4
2018-Sep-11 00:03N 49°20' W 123°21'119.2
2018-Sep-11 00:00N 49°19' W 123°22'1020.1
2018-Sep-10 23:30N 49°17' W 123°37'919.9
2018-Sep-10 23:03N 49°14' W 123°50'119.5
2018-Sep-10 23:00N 49°14' W 123°52'4 8.7
2018-Sep-10 22:30N 49°12' W 123°57'0 0.7
2018-Sep-10 22:03N 49°12' W 123°57'112.5
2018-Sep-10 22:00N 49°12' W 123°57'1120.1
2018-Sep-10 21:28N 49°16' W 123°42'820.1
2018-Sep-10 21:03N 49°18' W 123°29'120.2
2018-Sep-10 21:00N 49°19' W 123°28'816.6
2018-Sep-10 20:30N 49°23' W 123°16'0 0.2
2018-Sep-10 20:03N 49°23' W 123°16'0 0.0
2018-Sep-10 20:00N 49°23' W 123°16'3 5.4
2018-Sep-10 19:30N 49°21' W 123°20'919.6
2018-Sep-10 19:03N 49°17' W 123°32'120.6
2018-Sep-10 19:00N 49°17' W 123°34'1020.1
2018-Sep-10 18:30N 49°14' W 123°48'614.2
2018-Sep-10 18:03N 49°12' W 123°57'0 0.0
2018-Sep-10 18:00N 49°12' W 123°57'0 0.0
2018-Sep-10 17:30N 49°12' W 123°57'715.0
2018-Sep-10 17:03N 49°15' W 123°48'119.5
2018-Sep-10 17:00N 49°15' W 123°47'1019.4
2018-Sep-10 16:30N 49°18' W 123°33'918.9
2018-Sep-10 16:02N 49°21' W 123°20'119.8
2018-Sep-10 16:00N 49°21' W 123°19'2 4.7
2018-Sep-10 15:30N 49°23' W 123°16'1 2.6
2018-Sep-10 15:03N 49°23' W 123°18'118.9
2018-Sep-10 15:00N 49°22' W 123°19'918.4
2018-Sep-10 14:30N 49°17' W 123°31'1019.3
2018-Sep-10 14:00N 49°16' W 123°46'916.7
2018-Sep-10 13:29N 49°12' W 123°57'0 0.1
2018-Sep-10 13:03N 49°12' W 123°57'0 0.0
2018-Sep-10 12:57N 49°12' W 123°57'0 0.0
2018-Sep-10 12:27N 49°12' W 123°57'0 0.0
2018-Sep-10 12:03N 49°12' W 123°57'0 0.0
2018-Sep-10 11:57N 49°12' W 123°57'0 0.0
2018-Sep-10 10:15N 49°12' W 123°57'0 0.0
2018-Sep-10 10:03N 49°12' W 123°57'0 0.0
2018-Sep-10 09:45N 49°12' W 123°57'0 0.0
2018-Sep-10 08:15N 49°12' W 123°57'0 0.0
2018-Sep-10 07:57N 49°12' W 123°57'0 0.0
2018-Sep-10 07:15N 49°12' W 123°57'0 0.0
2018-Sep-10 07:03N 49°12' W 123°57'0 0.0
2018-Sep-10 07:00N 49°12' W 123°57'714.4
2018-Sep-10 06:30N 49°15' W 123°48'920.1
2018-Sep-10 06:03N 49°18' W 123°34'119.4
2018-Sep-10 06:00N 49°18' W 123°33'1018.9
2018-Sep-10 05:30N 49°21' W 123°19'2 5.0
2018-Sep-10 05:03N 49°23' W 123°16'0 0.0
2018-Sep-10 05:00N 49°23' W 123°16'510.9
2018-Sep-10 04:30N 49°19' W 123°23'920.3
2018-Sep-10 04:03N 49°16' W 123°36'120.2
2018-Sep-10 04:00N 49°16' W 123°38'1020.3
2018-Sep-10 03:30N 49°14' W 123°53'4 7.9
2018-Sep-10 03:02N 49°12' W 123°57'0 0.0
2018-Sep-10 03:00N 49°12' W 123°57'1 1.4
2018-Sep-10 02:30N 49°12' W 123°57'919.7
2018-Sep-10 02:03N 49°16' W 123°44'120.6
2018-Sep-10 02:00N 49°16' W 123°43'1019.9
2018-Sep-10 01:30N 49°19' W 123°28'818.8
2018-Sep-10 01:03N 49°23' W 123°17'115.9
2018-Sep-10 01:01N 49°23' W 123°16'0 0.9
2018-Sep-10 00:30N 49°23' W 123°16'1 3.0
2018-Sep-10 00:03N 49°22' W 123°18'120.2
2018-Sep-10 00:00N 49°22' W 123°19'918.8
2018-Sep-09 23:30N 49°17' W 123°32'919.6
2018-Sep-09 23:03N 49°15' W 123°45'119.1
2018-Sep-09 23:00N 49°15' W 123°46'815.3
2018-Sep-09 22:30N 49°12' W 123°57'0 0.0
2018-Sep-09 22:03N 49°12' W 123°57'0 0.0
2018-Sep-09 22:00N 49°12' W 123°57'612.2
2018-Sep-09 21:30N 49°15' W 123°49'920.9
2018-Sep-09 21:03N 49°17' W 123°36'121.7
2018-Sep-09 21:01N 49°18' W 123°34'1019.6
2018-Sep-09 20:30N 49°21' W 123°20'3 6.2
2018-Sep-09 20:03N 49°23' W 123°16'0 0.0
2018-Sep-09 20:00N 49°23' W 123°16'1 2.5
2018-Sep-09 19:30N 49°23' W 123°18'818.9
2018-Sep-09 19:03N 49°18' W 123°29'120.1
2018-Sep-09 19:00N 49°18' W 123°31'1019.7
2018-Sep-09 18:30N 49°15' W 123°45'818.4
2018-Sep-09 18:02N 49°12' W 123°57'0 1.3
2018-Sep-09 18:00N 49°12' W 123°57'0 0.0
2018-Sep-09 17:30N 49°12' W 123°57'614.3
2018-Sep-09 17:03N 49°15' W 123°49'119.7
2018-Sep-09 17:00N 49°15' W 123°47'1019.7
2018-Sep-09 16:30N 49°18' W 123°33'919.0
2018-Sep-09 16:03N 49°21' W 123°20'119.4
2018-Sep-09 16:00N 49°21' W 123°20'3 5.0
2018-Sep-09 15:30N 49°23' W 123°16'1 1.9
2018-Sep-09 15:03N 49°23' W 123°17'119.2
2018-Sep-09 15:00N 49°22' W 123°18'918.8
2018-Sep-09 14:30N 49°18' W 123°31'1019.7
2018-Sep-09 14:00N 49°15' W 123°45'914.5
2018-Sep-09 13:25N 49°12' W 123°57'0 0.0
2018-Sep-09 12:55N 49°12' W 123°57'0 0.0
2018-Sep-09 12:28N 49°12' W 123°57'0 0.0
2018-Sep-09 12:01N 49°12' W 123°57'0 0.0
2018-Sep-09 11:55N 49°12' W 123°57'0 0.0
2018-Sep-09 11:25N 49°12' W 123°57'0 0.0
2018-Sep-09 11:01N 49°12' W 123°57'0 0.0
2018-Sep-09 10:58N 49°12' W 123°57'0 0.0
2018-Sep-09 10:25N 49°12' W 123°57'0 0.0
2018-Sep-09 09:55N 49°12' W 123°57'0 0.0
2018-Sep-09 09:19N 49°12' W 123°57'0 0.0
2018-Sep-09 09:01N 49°12' W 123°57'0 0.0
2018-Sep-09 08:58N 49°12' W 123°57'0 0.0
2018-Sep-09 08:19N 49°12' W 123°57'0 0.0
2018-Sep-09 08:01N 49°12' W 123°57'0 0.0
2018-Sep-09 07:49N 49°12' W 123°57'0 0.0
2018-Sep-09 07:25N 49°12' W 123°57'0 0.0
2018-Sep-09 07:03N 49°12' W 123°57'0 0.0
2018-Sep-09 07:00N 49°12' W 123°57'  
Track history (hours):
 
Tides and Currents Weather Stations Pressure Air Temp Water Temp Dewpoint Dewpoint Depression Visibility Wind Speed Wind Dir Waves Ship Positions

Queen Of Cowichan

Last reported at 2018-Sep-19 06:30 UTC. Time now 2018-Sep-19 06:53 UTC.
Position N 49°14' W 123°49'.

Length 139 m.

Type: Passenger vessel. MMSI: 316001251.

Date/timePositionNaut miles runAvg speedWind from/ knotsBaromVisibWave heightAir tempDewpointWater temp
2018-Sep-19 06:30N 49°14' W 123°49'918.6
2018-Sep-19 06:02N 49°17' W 123°36'119.1
2018-Sep-19 06:00N 49°18' W 123°35'918.6
2018-Sep-19 05:30N 49°20' W 123°21'4 9.5
2018-Sep-19 05:03N 49°23' W 123°16'0 0.0
2018-Sep-19 05:00N 49°23' W 123°16'2 3.8
2018-Sep-19 04:30N 49°22' W 123°19'818.6
2018-Sep-19 04:03N 49°18' W 123°30'119.2
2018-Sep-19 04:00N 49°18' W 123°32'1019.4
2018-Sep-19 03:30N 49°15' W 123°46'815.9
2018-Sep-19 02:59N 49°12' W 123°57'1 1.3
2018-Sep-19 02:30N 49°12' W 123°57'817.4
2018-Sep-19 02:03N 49°16' W 123°46'117.7
2018-Sep-19 01:59N 49°16' W 123°44'817.6
2018-Sep-19 01:30N 49°18' W 123°32'817.3
2018-Sep-19 01:04N 49°20' W 123°21'117.8
2018-Sep-19 01:01N 49°21' W 123°20'3 5.4
2018-Sep-19 00:30N 49°23' W 123°16'1 2.0
2018-Sep-19 00:02N 49°23' W 123°18'019.3
2018-Sep-19 00:00N 49°23' W 123°18'1019.1
2018-Sep-18 23:30N 49°17' W 123°30'919.9
2018-Sep-18 23:03N 49°15' W 123°44'119.5
2018-Sep-18 23:00N 49°15' W 123°45'917.4
2018-Sep-18 22:31N 49°12' W 123°57'0 0.1
2018-Sep-18 22:03N 49°12' W 123°57'0 0.6
2018-Sep-18 22:00N 49°12' W 123°57'816.5
2018-Sep-18 21:30N 49°15' W 123°46'919.8
2018-Sep-18 21:03N 49°18' W 123°33'119.7
2018-Sep-18 21:00N 49°18' W 123°31'918.7
2018-Sep-18 20:30N 49°22' W 123°18'2 3.4
2018-Sep-18 20:03N 49°23' W 123°16'0 0.0
2018-Sep-18 20:00N 49°23' W 123°16'2 3.4
2018-Sep-18 19:30N 49°22' W 123°19'919.3
2018-Sep-18 19:01N 49°17' W 123°31'020.0
2018-Sep-18 19:00N 49°17' W 123°32'1020.5
2018-Sep-18 18:30N 49°14' W 123°47'715.3
2018-Sep-18 18:01N 49°12' W 123°57'0 0.0
2018-Sep-18 17:58N 49°12' W 123°57'0 0.0
2018-Sep-18 17:30N 49°12' W 123°57'715.4
2018-Sep-18 17:03N 49°15' W 123°48'118.6
2018-Sep-18 17:00N 49°15' W 123°47'1018.5
2018-Sep-18 16:29N 49°18' W 123°33'818.5
2018-Sep-18 16:04N 49°20' W 123°21'118.5
2018-Sep-18 16:00N 49°21' W 123°20'3 5.7
2018-Sep-18 15:30N 49°23' W 123°16'1 2.1
2018-Sep-18 15:03N 49°23' W 123°18'119.4
2018-Sep-18 15:00N 49°22' W 123°18'918.4
2018-Sep-18 14:30N 49°18' W 123°31'1019.4
2018-Sep-18 14:00N 49°15' W 123°45'915.6
2018-Sep-18 13:27N 49°12' W 123°57'0 0.0
2018-Sep-18 11:46N 49°12' W 123°57'0 0.0
2018-Sep-18 11:22N 49°12' W 123°57'0 0.0
2018-Sep-18 10:58N 49°12' W 123°57'0 0.0
2018-Sep-18 09:52N 49°12' W 123°57'0 0.0
2018-Sep-18 07:52N 49°12' W 123°57'0 0.0
2018-Sep-18 07:28N 49°12' W 123°57'0 0.0
2018-Sep-18 06:58N 49°12' W 123°57'613.5
2018-Sep-18 06:30N 49°15' W 123°49'818.8
2018-Sep-18 06:03N 49°17' W 123°37'118.8
2018-Sep-18 06:00N 49°18' W 123°35'918.8
2018-Sep-18 05:30N 49°20' W 123°21'4 9.7
2018-Sep-18 05:03N 49°23' W 123°16'0 0.0
2018-Sep-18 05:00N 49°23' W 123°16'3 5.2
2018-Sep-18 04:31N 49°21' W 123°20'919.9
2018-Sep-18 04:03N 49°17' W 123°32'121.0
2018-Sep-18 04:00N 49°17' W 123°33'1020.9
2018-Sep-18 03:30N 49°14' W 123°49'612.6
2018-Sep-18 03:01N 49°12' W 123°57'0 0.0
2018-Sep-18 03:00N 49°12' W 123°57'2 3.8
2018-Sep-18 02:30N 49°13' W 123°55'1019.7
2018-Sep-18 02:01N 49°16' W 123°41'020.1
2018-Sep-18 02:00N 49°16' W 123°41'1019.7
2018-Sep-18 01:30N 49°19' W 123°26'816.5
2018-Sep-18 01:03N 49°23' W 123°16'0 1.5
2018-Sep-18 01:00N 49°23' W 123°16'0 0.1
2018-Sep-18 00:30N 49°23' W 123°16'612.5
2018-Sep-18 00:00N 49°19' W 123°24'1020.7
2018-Sep-17 23:30N 49°16' W 123°39'920.8
2018-Sep-17 23:03N 49°14' W 123°53'120.7
2018-Sep-17 23:00N 49°13' W 123°54'2 3.5
2018-Sep-17 22:18N 49°12' W 123°57'1 4.8
2018-Sep-17 22:03N 49°12' W 123°56'119.5
2018-Sep-17 22:00N 49°13' W 123°55'1019.6
2018-Sep-17 21:29N 49°17' W 123°40'919.7
2018-Sep-17 21:03N 49°19' W 123°28'119.3
2018-Sep-17 21:00N 49°19' W 123°26'714.8
2018-Sep-17 20:30N 49°23' W 123°16'0 0.1
2018-Sep-17 20:03N 49°23' W 123°16'0 0.0
2018-Sep-17 19:59N 49°23' W 123°16'4 8.6
2018-Sep-17 19:30N 49°20' W 123°21'1020.7
2018-Sep-17 19:03N 49°17' W 123°35'120.7
2018-Sep-17 19:00N 49°16' W 123°36'1020.4
2018-Sep-17 18:30N 49°14' W 123°51'5 9.8
2018-Sep-17 18:02N 49°12' W 123°57'0 0.0
2018-Sep-17 18:00N 49°12' W 123°57'0 0.0
2018-Sep-17 17:30N 49°12' W 123°57'614.1
2018-Sep-17 17:03N 49°15' W 123°49'120.4
2018-Sep-17 17:01N 49°15' W 123°47'1020.2
2018-Sep-17 16:30N 49°18' W 123°32'818.7
2018-Sep-17 16:03N 49°20' W 123°20'219.9
2018-Sep-17 15:58N 49°22' W 123°19'2 3.6
2018-Sep-17 15:30N 49°23' W 123°16'1 2.0
2018-Sep-17 15:04N 49°23' W 123°17'120.0
2018-Sep-17 15:00N 49°22' W 123°18'1018.9
2018-Sep-17 14:30N 49°18' W 123°31'1019.6
2018-Sep-17 13:59N 49°14' W 123°45'816.7
2018-Sep-17 13:30N 49°12' W 123°57'0 0.0
2018-Sep-17 12:53N 49°12' W 123°57'0 0.0
2018-Sep-17 12:02N 49°12' W 123°57'0 0.0
2018-Sep-17 11:56N 49°12' W 123°57'0 0.0
2018-Sep-17 11:20N 49°12' W 123°57'0 0.0
2018-Sep-17 10:38N 49°12' W 123°57'0 0.0
2018-Sep-17 10:23N 49°12' W 123°57'0 0.0
2018-Sep-17 09:56N 49°12' W 123°57'0 0.0
2018-Sep-17 09:14N 49°12' W 123°57'0 0.0
2018-Sep-17 08:47N 49°12' W 123°57'0 0.0
2018-Sep-17 08:29N 49°12' W 123°57'0 0.0
2018-Sep-17 08:02N 49°12' W 123°57'0 0.0
2018-Sep-17 07:50N 49°12' W 123°57'0 0.0
2018-Sep-17 07:20N 49°12' W 123°57'0 0.0
2018-Sep-17 06:53N 49°12' W 123°57'411.0
2018-Sep-17 06:30N 49°14' W 123°52'920.0
2018-Sep-17 06:03N 49°17' W 123°39'120.2
2018-Sep-17 06:01N 49°17' W 123°38'1020.0
2018-Sep-17 05:30N 49°19' W 123°23'511.6
2018-Sep-17 05:03N 49°23' W 123°16'0 0.0
2018-Sep-17 05:00N 49°23' W 123°16'1 2.1
2018-Sep-17 04:30N 49°23' W 123°18'818.7
2018-Sep-17 04:03N 49°18' W 123°28'120.4
2018-Sep-17 04:00N 49°18' W 123°29'1020.4
2018-Sep-17 03:30N 49°15' W 123°44'919.8
2018-Sep-17 03:03N 49°12' W 123°57'0 0.6
2018-Sep-17 02:24N 49°12' W 123°57'515.9
2018-Sep-17 02:03N 49°14' W 123°50'119.9
2018-Sep-17 01:59N 49°15' W 123°48'1020.0
2018-Sep-17 01:30N 49°18' W 123°34'919.7
2018-Sep-17 01:03N 49°20' W 123°21'120.0
2018-Sep-17 01:00N 49°21' W 123°20'3 6.0
2018-Sep-17 00:31N 49°23' W 123°16'2 4.1
2018-Sep-17 00:03N 49°22' W 123°19'120.4
2018-Sep-17 00:00N 49°21' W 123°20'1020.0
2018-Sep-16 23:30N 49°17' W 123°34'920.8
2018-Sep-16 23:04N 49°14' W 123°47'120.8
2018-Sep-16 23:00N 49°14' W 123°49'611.7
2018-Sep-16 22:30N 49°12' W 123°57'0 0.1
2018-Sep-16 22:02N 49°12' W 123°57'0 5.5
2018-Sep-16 22:00N 49°12' W 123°57'918.8
2018-Sep-16 21:30N 49°16' W 123°45'919.8
2018-Sep-16 21:04N 49°18' W 123°32'119.8
2018-Sep-16 21:00N 49°19' W 123°30'918.6
2018-Sep-16 20:30N 49°23' W 123°17'1 2.2
2018-Sep-16 20:03N 49°23' W 123°16'0 0.0
2018-Sep-16 19:58N 49°23' W 123°16'611.9
2018-Sep-16 19:31N 49°19' W 123°23'920.7
2018-Sep-16 19:03N 49°16' W 123°37'220.5
2018-Sep-16 18:58N 49°16' W 123°39'1020.6
2018-Sep-16 18:29N 49°13' W 123°54'3 5.9
2018-Sep-16 18:01N 49°12' W 123°57'0 0.0
2018-Sep-16 18:00N 49°12' W 123°57'0 0.7
2018-Sep-16 17:30N 49°12' W 123°57'612.9
2018-Sep-16 17:03N 49°15' W 123°49'118.9
2018-Sep-16 17:00N 49°15' W 123°48'919.4
2018-Sep-16 16:30N 49°18' W 123°34'919.2
2018-Sep-16 16:03N 49°20' W 123°21'119.8
2018-Sep-16 16:00N 49°21' W 123°20'3 6.4
2018-Sep-16 15:30N 49°23' W 123°16'1 3.3
2018-Sep-16 15:03N 49°22' W 123°18'118.9
2018-Sep-16 15:00N 49°21' W 123°19'918.2
2018-Sep-16 14:30N 49°17' W 123°32'1817.8
2018-Sep-16 13:30N 49°12' W 123°57'0 0.1
2018-Sep-16 13:03N 49°12' W 123°57'0 0.0
2018-Sep-16 13:00N 49°12' W 123°57'0 0.0
2018-Sep-16 12:30N 49°12' W 123°57'0 0.0
2018-Sep-16 12:00N 49°12' W 123°57'0 0.0
2018-Sep-16 11:30N 49°12' W 123°57'0 0.0
2018-Sep-16 11:03N 49°12' W 123°57'0 0.0
2018-Sep-16 11:00N 49°12' W 123°57'0 0.0
2018-Sep-16 10:27N 49°12' W 123°57'0 0.0
2018-Sep-16 10:03N 49°12' W 123°57'0 0.0
2018-Sep-16 10:00N 49°12' W 123°57'0 0.0
2018-Sep-16 09:27N 49°12' W 123°57'0 0.0
2018-Sep-16 09:03N 49°12' W 123°57'0 0.0
2018-Sep-16 09:00N 49°12' W 123°57'0 0.0
2018-Sep-16 08:30N 49°12' W 123°57'0 0.0
2018-Sep-16 08:03N 49°12' W 123°57'0 0.0
2018-Sep-16 08:00N 49°12' W 123°57'0 0.0
2018-Sep-16 07:18N 49°12' W 123°57'0 0.0
2018-Sep-16 07:03N 49°12' W 123°57'0 0.0
2018-Sep-16 06:57N 49°12' W 123°57'511.2
2018-Sep-16 06:30N 49°14' W 123°51'919.5
2018-Sep-16 06:03N 49°17' W 123°38'119.7
2018-Sep-16 06:00N 49°17' W 123°37'1019.5
2018-Sep-16 05:30N 49°20' W 123°22'510.5
2018-Sep-16 05:03N 49°23' W 123°16'0 0.0
2018-Sep-16 05:00N 49°23' W 123°16'1 2.4
2018-Sep-16 04:30N 49°23' W 123°18'919.0
2018-Sep-16 04:03N 49°18' W 123°29'120.4
2018-Sep-16 04:00N 49°17' W 123°30'1020.2
2018-Sep-16 03:30N 49°15' W 123°45'818.9
2018-Sep-16 03:03N 49°12' W 123°57'0 1.6
2018-Sep-16 03:00N 49°12' W 123°57'1 1.3
2018-Sep-16 02:30N 49°12' W 123°57'919.7
2018-Sep-16 02:03N 49°16' W 123°44'120.1
2018-Sep-16 02:00N 49°16' W 123°43'1020.2
2018-Sep-16 01:30N 49°19' W 123°28'818.8
2018-Sep-16 01:03N 49°23' W 123°17'111.9
2018-Sep-16 01:00N 49°23' W 123°16'0 0.5
2018-Sep-16 00:30N 49°23' W 123°16'4 8.2
2018-Sep-16 00:03N 49°20' W 123°21'120.2
2018-Sep-16 00:00N 49°19' W 123°22'1020.3
2018-Sep-15 23:30N 49°16' W 123°36'920.3
2018-Sep-15 23:03N 49°14' W 123°50'120.6
2018-Sep-15 23:00N 49°14' W 123°52'4 5.2
2018-Sep-15 22:12N 49°12' W 123°57'0 0.0
2018-Sep-15 22:03N 49°12' W 123°57'0 3.6
2018-Sep-15 22:00N 49°12' W 123°57'1018.8
2018-Sep-15 21:30N 49°16' W 123°44'919.9
2018-Sep-15 21:03N 49°18' W 123°31'119.9
2018-Sep-15 21:00N 49°18' W 123°30'918.5
2018-Sep-15 20:30N 49°23' W 123°18'1 2.3
2018-Sep-15 20:03N 49°23' W 123°16'0 0.0
2018-Sep-15 20:00N 49°23' W 123°16'2 3.4
2018-Sep-15 19:30N 49°22' W 123°19'818.9
2018-Sep-15 19:03N 49°18' W 123°30'120.0
2018-Sep-15 19:00N 49°17' W 123°31'1019.7
2018-Sep-15 18:30N 49°15' W 123°46'817.2
2018-Sep-15 18:02N 49°12' W 123°57'0 0.0
2018-Sep-15 18:01N 49°12' W 123°57'0 0.0
2018-Sep-15 17:30N 49°12' W 123°57'613.9
2018-Sep-15 17:03N 49°15' W 123°49'119.2
2018-Sep-15 17:00N 49°15' W 123°48'1019.6
2018-Sep-15 16:29N 49°18' W 123°33'819.2
2018-Sep-15 16:03N 49°20' W 123°20'119.9
2018-Sep-15 16:00N 49°21' W 123°20'3 5.2
2018-Sep-15 15:30N 49°23' W 123°16'1 2.3
2018-Sep-15 15:03N 49°23' W 123°18'1017.9
2018-Sep-15 14:30N 49°17' W 123°31'918.8
2018-Sep-15 14:00N 49°15' W 123°45'916.6
2018-Sep-15 13:28N 49°12' W 123°57'0 0.0
2018-Sep-15 13:03N 49°12' W 123°57'0 0.0
2018-Sep-15 13:00N 49°12' W 123°57'0 0.0
2018-Sep-15 12:26N 49°12' W 123°57'0 0.0
2018-Sep-15 11:59N 49°12' W 123°57'0 0.0
2018-Sep-15 11:29N 49°12' W 123°57'0 0.0
2018-Sep-15 10:59N 49°12' W 123°57'0 0.0
2018-Sep-15 10:28N 49°12' W 123°57'0 0.0
2018-Sep-15 09:37N 49°12' W 123°57'0 0.0
2018-Sep-15 09:25N 49°12' W 123°57'0 0.0
2018-Sep-15 08:01N 49°12' W 123°57'0 0.0
2018-Sep-15 07:56N 49°12' W 123°57'0 0.0
2018-Sep-15 07:14N 49°12' W 123°57'0 0.0
2018-Sep-15 06:58N 49°12' W 123°57'4 9.2
2018-Sep-15 06:30N 49°14' W 123°52'920.1
2018-Sep-15 06:03N 49°17' W 123°39'120.0
2018-Sep-15 06:00N 49°17' W 123°37'1020.0
2018-Sep-15 05:30N 49°19' W 123°22'511.1
2018-Sep-15 05:03N 49°23' W 123°16'0 0.0
2018-Sep-15 05:00N 49°23' W 123°16'1 2.0
2018-Sep-15 04:31N 49°23' W 123°18'919.1
2018-Sep-15 04:03N 49°18' W 123°28'120.6
2018-Sep-15 04:00N 49°18' W 123°29'1020.3
2018-Sep-15 03:30N 49°15' W 123°45'919.5
2018-Sep-15 03:03N 49°12' W 123°57'0 3.4
2018-Sep-15 02:59N 49°12' W 123°57'0 0.1
2018-Sep-15 02:29N 49°12' W 123°57'614.5
2018-Sep-15 02:03N 49°14' W 123°49'120.3
2018-Sep-15 02:00N 49°15' W 123°47'1019.7
2018-Sep-15 01:30N 49°18' W 123°33'919.3
2018-Sep-15 01:03N 49°20' W 123°20'120.2
2018-Sep-15 01:00N 49°21' W 123°19'2 4.8
2018-Sep-15 00:30N 49°23' W 123°16'1 1.3
2018-Sep-15 00:03N 49°23' W 123°17'114.5
2018-Sep-15 00:00N 49°23' W 123°18'1019.1
2018-Sep-14 23:30N 49°17' W 123°30'920.4
2018-Sep-14 23:03N 49°15' W 123°43'119.4
2018-Sep-14 23:00N 49°15' W 123°44'9 7.9
2018-Sep-14 21:52N 49°12' W 123°57'616.2
2018-Sep-14 21:30N 49°15' W 123°49'920.0
2018-Sep-14 21:03N 49°17' W 123°36'120.3
2018-Sep-14 21:00N 49°18' W 123°35'1019.5
2018-Sep-14 20:30N 49°20' W 123°20'3 7.9
2018-Sep-14 20:04N 49°23' W 123°16'0 0.0
2018-Sep-14 20:00N 49°23' W 123°16'2 3.1
2018-Sep-14 19:30N 49°22' W 123°19'818.3
2018-Sep-14 19:03N 49°18' W 123°29'119.0
2018-Sep-14 19:00N 49°17' W 123°31'1019.3
2018-Sep-14 18:30N 49°15' W 123°45'919.0
2018-Sep-14 18:03N 49°12' W 123°57'0 0.5
2018-Sep-14 17:24N 49°12' W 123°57'615.8
2018-Sep-14 17:02N 49°15' W 123°50'119.3
2018-Sep-14 17:00N 49°15' W 123°49'1019.5
2018-Sep-14 16:29N 49°18' W 123°34'819.5
2018-Sep-14 16:03N 49°20' W 123°21'119.7
2018-Sep-14 16:01N 49°20' W 123°20'4 7.1
2018-Sep-14 15:30N 49°23' W 123°16'1 1.7
2018-Sep-14 15:03N 49°23' W 123°17'119.7
2018-Sep-14 15:00N 49°22' W 123°18'918.4
2018-Sep-14 14:30N 49°17' W 123°30'1019.3
2018-Sep-14 14:00N 49°15' W 123°45'917.5
2018-Sep-14 13:29N 49°12' W 123°57'0 0.1
2018-Sep-14 13:02N 49°12' W 123°57'0 0.0
2018-Sep-14 13:00N 49°12' W 123°57'0 0.0
2018-Sep-14 12:27N 49°12' W 123°57'0 0.0
2018-Sep-14 12:03N 49°12' W 123°57'0 0.0
2018-Sep-14 12:00N 49°12' W 123°57'0 0.0
2018-Sep-14 09:30N 49°12' W 123°57'0 0.0
2018-Sep-14 08:27N 49°12' W 123°57'0 0.0
2018-Sep-14 08:00N 49°12' W 123°57'0 0.0
2018-Sep-14 07:30N 49°12' W 123°57'0 0.0
2018-Sep-14 06:51N 49°12' W 123°57'412.1
2018-Sep-14 06:30N 49°14' W 123°52'920.1
2018-Sep-14 06:03N 49°17' W 123°39'120.5
2018-Sep-14 06:01N 49°17' W 123°38'1020.3
2018-Sep-14 05:30N 49°20' W 123°23'511.1
2018-Sep-14 05:03N 49°23' W 123°16'0 0.0
2018-Sep-14 05:00N 49°23' W 123°16'1 2.4
2018-Sep-14 04:30N 49°23' W 123°18'918.9
2018-Sep-14 04:03N 49°18' W 123°29'120.6
2018-Sep-14 04:00N 49°17' W 123°30'1020.1
2018-Sep-14 03:30N 49°15' W 123°45'918.6
2018-Sep-14 03:03N 49°12' W 123°57'0 0.3
2018-Sep-14 02:45N 49°12' W 123°57'0 0.7
2018-Sep-14 02:30N 49°12' W 123°57'918.4
2018-Sep-14 02:02N 49°16' W 123°46'820.0
2018-Sep-14 01:39N 49°18' W 123°34'319.7
2018-Sep-14 01:29N 49°18' W 123°30'818.9
2018-Sep-14 01:03N 49°22' W 123°18'120.0
2018-Sep-14 01:00N 49°23' W 123°17'1 1.7
2018-Sep-14 00:30N 49°23' W 123°16'2 3.7
2018-Sep-14 00:03N 49°22' W 123°19'119.8
2018-Sep-14 00:00N 49°21' W 123°19'1019.0
2018-Sep-13 23:30N 49°17' W 123°32'919.9
2018-Sep-13 23:03N 49°15' W 123°45'120.1
2018-Sep-13 23:00N 49°14' W 123°47'714.4
2018-Sep-13 22:30N 49°12' W 123°57'0 0.0
2018-Sep-13 22:03N 49°12' W 123°57'0 0.0
2018-Sep-13 22:00N 49°12' W 123°57'612.7
2018-Sep-13 21:30N 49°15' W 123°49'920.0
2018-Sep-13 21:03N 49°18' W 123°36'119.5
2018-Sep-13 21:00N 49°18' W 123°35'1019.4
2018-Sep-13 20:30N 49°20' W 123°20'3 7.4
2018-Sep-13 20:03N 49°23' W 123°16'0 0.0
2018-Sep-13 20:00N 49°23' W 123°16'1 2.6
2018-Sep-13 19:30N 49°23' W 123°18'919.5
2018-Sep-13 19:03N 49°18' W 123°29'120.9
2018-Sep-13 19:00N 49°17' W 123°31'1020.6
2018-Sep-13 18:30N 49°15' W 123°46'817.5
2018-Sep-13 18:03N 49°12' W 123°57'0 0.0
2018-Sep-13 18:00N 49°12' W 123°57'0 0.0
2018-Sep-13 17:28N 49°12' W 123°57'715.8
2018-Sep-13 17:02N 49°15' W 123°48'119.0
2018-Sep-13 17:01N 49°15' W 123°47'1018.9
2018-Sep-13 16:30N 49°18' W 123°33'818.9
2018-Sep-13 16:03N 49°20' W 123°21'119.4
2018-Sep-13 16:00N 49°21' W 123°20'3 6.0
2018-Sep-13 15:30N 49°23' W 123°16'1 2.5
2018-Sep-13 15:03N 49°23' W 123°18'119.3
2018-Sep-13 14:59N 49°22' W 123°19'918.2
2018-Sep-13 14:30N 49°17' W 123°31'1018.8
2018-Sep-13 13:59N 49°15' W 123°45'916.2
2018-Sep-13 13:28N 49°12' W 123°57'0 0.0
2018-Sep-13 13:02N 49°12' W 123°57'0 0.0
2018-Sep-13 12:59N 49°12' W 123°57'0 0.0
2018-Sep-13 11:34N 49°12' W 123°57'0 0.0
2018-Sep-13 08:39N 49°12' W 123°57'0 0.0
2018-Sep-13 08:27N 49°12' W 123°57'0 0.0
2018-Sep-13 08:03N 49°12' W 123°57'0 0.0
2018-Sep-13 07:51N 49°12' W 123°57'0 0.0
2018-Sep-13 07:27N 49°12' W 123°57'0 0.0
2018-Sep-13 07:03N 49°12' W 123°57'0 0.0
2018-Sep-13 06:57N 49°12' W 123°57'613.5
2018-Sep-13 06:30N 49°15' W 123°49'818.5
2018-Sep-13 06:03N 49°17' W 123°37'118.5
2018-Sep-13 06:01N 49°17' W 123°36'918.5
2018-Sep-13 05:30N 49°20' W 123°22'510.3
2018-Sep-13 05:03N 49°23' W 123°16'0 0.0
2018-Sep-13 05:00N 49°23' W 123°16'1 1.9
2018-Sep-13 04:30N 49°23' W 123°18'918.8
2018-Sep-13 04:03N 49°18' W 123°28'120.3
2018-Sep-13 04:00N 49°18' W 123°29'1020.1
2018-Sep-13 03:30N 49°15' W 123°44'919.7
2018-Sep-13 03:03N 49°12' W 123°57'0 8.0
2018-Sep-13 03:00N 49°12' W 123°57'0 0.1
2018-Sep-13 02:29N 49°12' W 123°57'715.2
2018-Sep-13 02:03N 49°15' W 123°48'120.2
2018-Sep-13 02:00N 49°15' W 123°47'1019.9
2018-Sep-13 01:30N 49°18' W 123°32'818.7
2018-Sep-13 01:03N 49°20' W 123°20'120.1
2018-Sep-13 01:00N 49°21' W 123°19'3 5.2
2018-Sep-13 00:30N 49°23' W 123°16'0 1.0
2018-Sep-13 00:03N 49°23' W 123°16'111.3
2018-Sep-13 00:00N 49°23' W 123°17'1018.9
2018-Sep-12 23:30N 49°18' W 123°29'920.1
2018-Sep-12 23:03N 49°15' W 123°43'120.1
2018-Sep-12 23:00N 49°15' W 123°44'916.6
2018-Sep-12 22:27N 49°12' W 123°57'0 0.0
2018-Sep-12 21:58N 49°12' W 123°57'714.6
2018-Sep-12 21:30N 49°15' W 123°48'919.9
2018-Sep-12 21:01N 49°18' W 123°35'019.0
2018-Sep-12 21:00N 49°18' W 123°34'1019.3
2018-Sep-12 20:30N 49°21' W 123°20'3 6.4
2018-Sep-12 20:03N 49°23' W 123°16'0 0.0
2018-Sep-12 20:00N 49°23' W 123°16'2 4.5
2018-Sep-12 19:30N 49°21' W 123°19'818.5
2018-Sep-12 19:03N 49°17' W 123°30'118.9
2018-Sep-12 19:00N 49°17' W 123°32'1019.2
2018-Sep-12 18:30N 49°15' W 123°46'817.8
2018-Sep-12 18:03N 49°12' W 123°57'0 1.2
2018-Sep-12 18:00N 49°12' W 123°57'0 0.0
2018-Sep-12 17:29N 49°12' W 123°57'715.4
2018-Sep-12 17:03N 49°15' W 123°48'118.8
2018-Sep-12 17:00N 49°15' W 123°47'918.5
2018-Sep-12 16:30N 49°18' W 123°33'818.6
2018-Sep-12 16:03N 49°20' W 123°21'118.4
2018-Sep-12 16:00N 49°21' W 123°20'3 6.4
2018-Sep-12 15:30N 49°23' W 123°16'1 2.0
2018-Sep-12 15:03N 49°23' W 123°18'119.5
2018-Sep-12 15:00N 49°22' W 123°19'1818.6
2018-Sep-12 14:03N 49°15' W 123°43'119.5
2018-Sep-12 14:00N 49°15' W 123°45'917.0
2018-Sep-12 13:29N 49°12' W 123°57'0 0.1
2018-Sep-12 12:46N 49°12' W 123°57'0 0.0
2018-Sep-12 12:26N 49°12' W 123°57'0 0.0
2018-Sep-12 08:59N 49°12' W 123°57'0 0.0
2018-Sep-12 08:23N 49°12' W 123°57'0 0.0
2018-Sep-12 07:59N 49°12' W 123°57'0 0.0
2018-Sep-12 07:23N 49°12' W 123°57'0 0.0
2018-Sep-12 06:56N 49°12' W 123°57'614.9
2018-Sep-12 06:30N 49°14' W 123°48'920.0
2018-Sep-12 06:03N 49°17' W 123°35'119.6
2018-Sep-12 06:01N 49°18' W 123°34'918.4
2018-Sep-12 05:30N 49°20' W 123°21'4 7.8
2018-Sep-12 05:03N 49°23' W 123°16'0 0.0
2018-Sep-12 05:00N 49°23' W 123°16'2 4.0
2018-Sep-12 04:30N 49°22' W 123°19'817.6
2018-Sep-12 04:03N 49°18' W 123°30'118.7
2018-Sep-12 04:00N 49°18' W 123°31'918.6
2018-Sep-12 03:30N 49°15' W 123°45'818.6
2018-Sep-12 03:03N 49°12' W 123°57'1 7.4
2018-Sep-12 02:58N 49°12' W 123°57'0 0.1
2018-Sep-12 02:30N 49°12' W 123°57'614.3
2018-Sep-12 02:03N 49°15' W 123°49'120.2
2018-Sep-12 02:01N 49°15' W 123°48'1019.8
2018-Sep-12 01:30N 49°18' W 123°33'818.5
2018-Sep-12 01:03N 49°20' W 123°21'120.7
2018-Sep-12 01:01N 49°21' W 123°20'3 5.5
2018-Sep-12 00:30N 49°23' W 123°16'1 1.9
2018-Sep-12 00:03N 49°23' W 123°17'114.1
2018-Sep-12 00:00N 49°23' W 123°18'1019.6
2018-Sep-11 23:30N 49°18' W 123°30'920.6
2018-Sep-11 23:03N 49°15' W 123°44'120.0
2018-Sep-11 23:00N 49°15' W 123°45'816.7
2018-Sep-11 22:30N 49°12' W 123°57'0 0.2
2018-Sep-11 22:03N 49°12' W 123°57'010.0
2018-Sep-11 22:00N 49°12' W 123°57'1019.6
2018-Sep-11 21:30N 49°16' W 123°43'920.1
2018-Sep-11 21:03N 49°18' W 123°30'120.1
2018-Sep-11 21:00N 49°18' W 123°28'917.6
2018-Sep-11 20:30N 49°23' W 123°16'0 0.5
2018-Sep-11 20:03N 49°23' W 123°16'0 0.0
2018-Sep-11 20:00N 49°23' W 123°16'2 3.9
2018-Sep-11 19:30N 49°22' W 123°19'919.1
2018-Sep-11 19:03N 49°18' W 123°30'120.5
2018-Sep-11 19:00N 49°17' W 123°32'1020.3
2018-Sep-11 18:30N 49°15' W 123°47'716.3
2018-Sep-11 18:03N 49°12' W 123°57'0 0.0
2018-Sep-11 18:00N 49°12' W 123°57'0 0.0
2018-Sep-11 17:30N 49°12' W 123°57'714.7
2018-Sep-11 17:03N 49°15' W 123°48'119.1
2018-Sep-11 17:00N 49°15' W 123°47'1019.2
2018-Sep-11 16:30N 49°18' W 123°33'918.9
2018-Sep-11 16:02N 49°21' W 123°20'119.4
2018-Sep-11 16:00N 49°21' W 123°20'3 5.0
2018-Sep-11 15:30N 49°23' W 123°16'1 2.4
2018-Sep-11 15:03N 49°23' W 123°18'119.8
2018-Sep-11 15:00N 49°22' W 123°19'918.1
2018-Sep-11 14:30N 49°18' W 123°31'1019.2
2018-Sep-11 14:00N 49°15' W 123°45'916.2
2018-Sep-11 13:28N 49°12' W 123°57'0 0.0
2018-Sep-11 13:03N 49°12' W 123°57'0 0.0
2018-Sep-11 13:00N 49°12' W 123°57'0 0.0
2018-Sep-11 12:30N 49°12' W 123°57'0 0.0
2018-Sep-11 12:02N 49°12' W 123°57'0 0.0
2018-Sep-11 11:50N 49°12' W 123°57'0 0.0
2018-Sep-11 11:26N 49°12' W 123°57'0 0.0
2018-Sep-11 10:56N 49°12' W 123°57'0 0.0
2018-Sep-11 10:26N 49°12' W 123°57'0 0.0
2018-Sep-11 09:56N 49°12' W 123°57'0 0.0
2018-Sep-11 09:20N 49°12' W 123°57'0 0.0
2018-Sep-11 08:08N 49°12' W 123°57'0 0.0
2018-Sep-11 07:14N 49°12' W 123°57'0 0.0
2018-Sep-11 07:02N 49°12' W 123°57'0 0.0
2018-Sep-11 06:59N 49°12' W 123°57'613.2
2018-Sep-11 06:30N 49°15' W 123°49'920.1
2018-Sep-11 06:03N 49°18' W 123°35'119.6
2018-Sep-11 06:00N 49°18' W 123°34'1019.5
2018-Sep-11 05:30N 49°21' W 123°20'3 6.6
2018-Sep-11 05:03N 49°23' W 123°16'0 0.0
2018-Sep-11 05:00N 49°23' W 123°16'510.1
2018-Sep-11 04:30N 49°19' W 123°22'920.5
2018-Sep-11 04:03N 49°16' W 123°36'120.4
2018-Sep-11 04:00N 49°16' W 123°37'1120.6
2018-Sep-11 03:29N 49°14' W 123°53'3 4.7
2018-Sep-11 02:45N 49°12' W 123°57'311.5
2018-Sep-11 02:30N 49°13' W 123°54'919.8
2018-Sep-11 02:02N 49°17' W 123°41'120.2
2018-Sep-11 02:00N 49°17' W 123°40'1020.0
2018-Sep-11 01:30N 49°19' W 123°25'614.4
2018-Sep-11 01:03N 49°23' W 123°16'0 0.0
2018-Sep-11 01:00N 49°23' W 123°16'0 0.0
2018-Sep-11 00:30N 49°23' W 123°16'4 9.4
2018-Sep-11 00:03N 49°20' W 123°21'119.2
2018-Sep-11 00:00N 49°19' W 123°22'1020.1
2018-Sep-10 23:30N 49°17' W 123°37'919.9
2018-Sep-10 23:03N 49°14' W 123°50'119.5
2018-Sep-10 23:00N 49°14' W 123°52'4 8.7
2018-Sep-10 22:30N 49°12' W 123°57'0 0.7
2018-Sep-10 22:03N 49°12' W 123°57'112.5
2018-Sep-10 22:00N 49°12' W 123°57'1120.1
2018-Sep-10 21:28N 49°16' W 123°42'820.1
2018-Sep-10 21:03N 49°18' W 123°29'120.2
2018-Sep-10 21:00N 49°19' W 123°28'816.6
2018-Sep-10 20:30N 49°23' W 123°16'0 0.2
2018-Sep-10 20:03N 49°23' W 123°16'0 0.0
2018-Sep-10 20:00N 49°23' W 123°16'3 5.4
2018-Sep-10 19:30N 49°21' W 123°20'919.6
2018-Sep-10 19:03N 49°17' W 123°32'120.6
2018-Sep-10 19:00N 49°17' W 123°34'1020.1
2018-Sep-10 18:30N 49°14' W 123°48'614.2
2018-Sep-10 18:03N 49°12' W 123°57'0 0.0
2018-Sep-10 18:00N 49°12' W 123°57'0 0.0
2018-Sep-10 17:30N 49°12' W 123°57'715.0
2018-Sep-10 17:03N 49°15' W 123°48'119.5
2018-Sep-10 17:00N 49°15' W 123°47'1019.4
2018-Sep-10 16:30N 49°18' W 123°33'918.9
2018-Sep-10 16:02N 49°21' W 123°20'119.8
2018-Sep-10 16:00N 49°21' W 123°19'2 4.7
2018-Sep-10 15:30N 49°23' W 123°16'1 2.6
2018-Sep-10 15:03N 49°23' W 123°18'118.9
2018-Sep-10 15:00N 49°22' W 123°19'918.4
2018-Sep-10 14:30N 49°17' W 123°31'1019.3
2018-Sep-10 14:00N 49°16' W 123°46'916.7
2018-Sep-10 13:29N 49°12' W 123°57'0 0.1
2018-Sep-10 13:03N 49°12' W 123°57'0 0.0
2018-Sep-10 12:57N 49°12' W 123°57'0 0.0
2018-Sep-10 12:27N 49°12' W 123°57'0 0.0
2018-Sep-10 12:03N 49°12' W 123°57'0 0.0
2018-Sep-10 11:57N 49°12' W 123°57'0 0.0
2018-Sep-10 10:15N 49°12' W 123°57'0 0.0
2018-Sep-10 10:03N 49°12' W 123°57'0 0.0
2018-Sep-10 09:45N 49°12' W 123°57'0 0.0
2018-Sep-10 08:15N 49°12' W 123°57'0 0.0
2018-Sep-10 07:57N 49°12' W 123°57'0 0.0
2018-Sep-10 07:15N 49°12' W 123°57'0 0.0
2018-Sep-10 07:03N 49°12' W 123°57'0 0.0
2018-Sep-10 07:00N 49°12' W 123°57'714.4
2018-Sep-10 06:30N 49°15' W 123°48'920.1
2018-Sep-10 06:03N 49°18' W 123°34'119.4
2018-Sep-10 06:00N 49°18' W 123°33'1018.9
2018-Sep-10 05:30N 49°21' W 123°19'2 5.0
2018-Sep-10 05:03N 49°23' W 123°16'0 0.0
2018-Sep-10 05:00N 49°23' W 123°16'510.9
2018-Sep-10 04:30N 49°19' W 123°23'920.3
2018-Sep-10 04:03N 49°16' W 123°36'120.2
2018-Sep-10 04:00N 49°16' W 123°38'1020.3
2018-Sep-10 03:30N 49°14' W 123°53'4 7.9
2018-Sep-10 03:02N 49°12' W 123°57'0 0.0
2018-Sep-10 03:00N 49°12' W 123°57'1 1.4
2018-Sep-10 02:30N 49°12' W 123°57'919.7
2018-Sep-10 02:03N 49°16' W 123°44'120.6
2018-Sep-10 02:00N 49°16' W 123°43'1019.9
2018-Sep-10 01:30N 49°19' W 123°28'818.8
2018-Sep-10 01:03N 49°23' W 123°17'115.9
2018-Sep-10 01:01N 49°23' W 123°16'0 0.9
2018-Sep-10 00:30N 49°23' W 123°16'1 3.0
2018-Sep-10 00:03N 49°22' W 123°18'120.2
2018-Sep-10 00:00N 49°22' W 123°19'918.8
2018-Sep-09 23:30N 49°17' W 123°32'919.6
2018-Sep-09 23:03N 49°15' W 123°45'119.1
2018-Sep-09 23:00N 49°15' W 123°46'815.3
2018-Sep-09 22:30N 49°12' W 123°57'0 0.0
2018-Sep-09 22:03N 49°12' W 123°57'0 0.0
2018-Sep-09 22:00N 49°12' W 123°57'612.2
2018-Sep-09 21:30N 49°15' W 123°49'920.9
2018-Sep-09 21:03N 49°17' W 123°36'121.7
2018-Sep-09 21:01N 49°18' W 123°34'1019.6
2018-Sep-09 20:30N 49°21' W 123°20'3 6.2
2018-Sep-09 20:03N 49°23' W 123°16'0 0.0
2018-Sep-09 20:00N 49°23' W 123°16'1 2.5
2018-Sep-09 19:30N 49°23' W 123°18'818.9
2018-Sep-09 19:03N 49°18' W 123°29'120.1
2018-Sep-09 19:00N 49°18' W 123°31'1019.7
2018-Sep-09 18:30N 49°15' W 123°45'818.4
2018-Sep-09 18:02N 49°12' W 123°57'0 1.3
2018-Sep-09 18:00N 49°12' W 123°57'0 0.0
2018-Sep-09 17:30N 49°12' W 123°57'614.3
2018-Sep-09 17:03N 49°15' W 123°49'119.7
2018-Sep-09 17:00N 49°15' W 123°47'1019.7
2018-Sep-09 16:30N 49°18' W 123°33'919.0
2018-Sep-09 16:03N 49°21' W 123°20'119.4
2018-Sep-09 16:00N 49°21' W 123°20'3 5.0
2018-Sep-09 15:30N 49°23' W 123°16'1 1.9
2018-Sep-09 15:03N 49°23' W 123°17'119.2
2018-Sep-09 15:00N 49°22' W 123°18'918.8
2018-Sep-09 14:30N 49°18' W 123°31'1019.7
2018-Sep-09 14:00N 49°15' W 123°45'914.5
2018-Sep-09 13:25N 49°12' W 123°57'0 0.0
2018-Sep-09 12:55N 49°12' W 123°57'0 0.0
2018-Sep-09 12:28N 49°12' W 123°57'0 0.0
2018-Sep-09 12:01N 49°12' W 123°57'0 0.0
2018-Sep-09 11:55N 49°12' W 123°57'0 0.0
2018-Sep-09 11:25N 49°12' W 123°57'0 0.0
2018-Sep-09 11:01N 49°12' W 123°57'0 0.0
2018-Sep-09 10:58N 49°12' W 123°57'0 0.0
2018-Sep-09 10:25N 49°12' W 123°57'0 0.0
2018-Sep-09 09:55N 49°12' W 123°57'0 0.0
2018-Sep-09 09:19N 49°12' W 123°57'0 0.0
2018-Sep-09 09:01N 49°12' W 123°57'0 0.0
2018-Sep-09 08:58N 49°12' W 123°57'0 0.0
2018-Sep-09 08:19N 49°12' W 123°57'0 0.0
2018-Sep-09 08:01N 49°12' W 123°57'0 0.0
2018-Sep-09 07:49N 49°12' W 123°57'0 0.0
2018-Sep-09 07:25N 49°12' W 123°57'0 0.0
2018-Sep-09 07:03N 49°12' W 123°57'0 0.0
2018-Sep-09 07:00N 49°12' W 123°57'  

Dump ship's entire track history